createdAt,value
2023-04-16T00:00:36.787Z,5.20
2023-04-16T00:03:40.063Z,5.40
2023-04-16T00:06:43.281Z,5.28
2023-04-16T00:09:46.380Z,5.25
2023-04-16T00:12:50.619Z,4.82
2023-04-16T00:15:53.487Z,5.03
2023-04-16T00:18:56.409Z,5.35
2023-04-16T00:21:59.333Z,5.05
2023-04-16T00:25:02.456Z,5.20
2023-04-16T00:28:08.031Z,4.93
2023-04-16T00:31:11.599Z,4.97
2023-04-16T00:34:14.815Z,4.80
2023-04-16T00:37:17.785Z,4.75
2023-04-16T00:40:20.760Z,4.85
2023-04-16T00:43:26.040Z,5.15
2023-04-16T00:46:29.082Z,4.72
2023-04-16T00:49:32.400Z,5.07
2023-04-16T00:52:36.043Z,4.72
2023-04-16T00:55:39.631Z,5.28
2023-04-16T00:58:43.869Z,5.03
2023-04-16T01:01:46.913Z,4.43
2023-04-16T01:04:50.454Z,4.80
2023-04-16T01:07:53.451Z,4.53
2023-04-16T01:10:56.383Z,4.55
2023-04-16T01:14:00.737Z,4.78
2023-04-16T01:17:03.820Z,4.43
2023-04-16T01:20:07.367Z,4.75
2023-04-16T01:23:12.465Z,4.97
2023-04-16T01:26:15.497Z,4.78
2023-04-16T01:29:18.401Z,4.80
2023-04-16T01:32:22.230Z,4.20
2023-04-16T01:35:25.230Z,4.63
2023-04-16T01:38:29.565Z,4.35
2023-04-16T01:41:32.917Z,4.60
2023-04-16T01:44:35.791Z,4.28
2023-04-16T01:47:38.854Z,4.40
2023-04-16T01:50:42.493Z,4.82
2023-04-16T01:53:46.839Z,4.53
2023-04-16T01:56:49.695Z,4.10
2023-04-16T01:59:53.435Z,4.63
2023-04-16T02:02:57.634Z,4.20
2023-04-16T02:06:03.649Z,4.60
2023-04-16T02:09:08.087Z,4.90
2023-04-16T02:12:12.886Z,4.10
2023-04-16T02:15:16.461Z,4.65
2023-04-16T02:18:19.924Z,4.47
2023-04-16T02:21:23.438Z,4.75
2023-04-16T02:24:27.889Z,4.60
2023-04-16T02:27:31.455Z,4.28
2023-04-16T02:30:46.692Z,4.38
2023-04-16T02:33:52.342Z,4.38
2023-04-16T02:36:55.458Z,4.45
2023-04-16T02:39:59.799Z,4.30
2023-04-16T02:43:03.070Z,3.80
2023-04-16T02:46:06.097Z,4.43
2023-04-16T02:49:09.207Z,4.22
2023-04-16T02:52:13.776Z,4.40
2023-04-16T02:55:20.019Z,3.92
2023-04-16T02:58:23.964Z,4.05
2023-04-16T03:01:28.472Z,4.10
2023-04-16T03:04:31.554Z,4.10
2023-04-16T03:07:34.512Z,4.18
2023-04-16T03:10:38.890Z,4.03
2023-04-16T03:13:41.750Z,4.10
2023-04-16T03:16:44.712Z,4.70
2023-04-16T03:19:47.668Z,4.20
2023-04-16T03:22:52.226Z,3.88
2023-04-16T03:25:56.463Z,4.28
2023-04-16T03:29:02.121Z,4.10
2023-04-16T03:32:07.396Z,3.88
2023-04-16T03:35:11.216Z,4.15
2023-04-16T03:38:14.335Z,3.58
2023-04-16T03:41:18.993Z,4.05
2023-04-16T03:44:21.930Z,4.22
2023-04-16T03:47:24.837Z,4.30
2023-04-16T03:50:30.841Z,3.72
2023-04-16T03:53:33.814Z,3.75
2023-04-16T03:56:38.229Z,4.03
2023-04-16T03:59:41.082Z,3.97
2023-04-16T04:02:44.215Z,4.03
2023-04-16T04:05:54.269Z,4.28
2023-04-16T04:09:02.248Z,3.85
2023-04-16T04:12:06.658Z,3.95
2023-04-16T04:15:11.672Z,3.92
2023-04-16T04:18:14.538Z,3.92
2023-04-16T04:21:19.587Z,3.75
2023-04-16T04:24:22.532Z,3.80
2023-04-16T04:27:27.207Z,3.60
2023-04-16T04:30:30.090Z,3.90
2023-04-16T04:33:33.239Z,3.75
2023-04-16T04:36:36.274Z,3.75
2023-04-16T04:39:39.341Z,3.60
2023-04-16T04:42:44.103Z,3.67
2023-04-16T04:45:47.522Z,3.42
2023-04-16T04:48:50.622Z,3.88
2023-04-16T04:51:53.542Z,4.07
2023-04-16T04:54:57.306Z,3.88
2023-04-16T04:58:01.620Z,4.00
2023-04-16T05:01:04.724Z,4.00
2023-04-16T05:04:07.767Z,3.50
2023-04-16T05:07:11.085Z,3.90
2023-04-16T05:10:14.010Z,3.70
2023-04-16T05:13:18.262Z,3.72
2023-04-16T05:16:21.155Z,3.47
2023-04-16T05:19:24.086Z,3.90
2023-04-16T05:22:27.013Z,4.10
2023-04-16T05:25:29.977Z,4.30
2023-04-16T05:28:34.274Z,3.95
2023-04-16T05:31:37.181Z,3.58
2023-04-16T05:34:40.115Z,3.85
2023-04-16T05:37:43.008Z,3.85
2023-04-16T05:40:45.911Z,3.78
2023-04-16T05:43:50.163Z,3.80
2023-04-16T05:46:53.028Z,3.35
2023-04-16T05:49:56.026Z,3.80
2023-04-16T05:52:58.861Z,4.30
2023-04-16T05:56:01.734Z,3.38
2023-04-16T05:59:06.016Z,3.85
2023-04-16T06:02:09.059Z,3.50
2023-04-16T06:05:12.184Z,3.78
2023-04-16T06:08:15.093Z,3.50
2023-04-16T06:11:18.023Z,4.15
2023-04-16T06:14:22.296Z,3.83
2023-04-16T06:17:25.440Z,4.35
2023-04-16T06:20:28.489Z,3.50
2023-04-16T06:23:31.450Z,3.30
2023-04-16T06:26:34.549Z,3.80
2023-04-16T06:29:41.662Z,3.65
2023-04-16T06:32:46.548Z,3.80
2023-04-16T06:35:49.479Z,3.40
2023-04-16T06:38:52.613Z,3.53
2023-04-16T06:41:55.985Z,4.35
2023-04-16T06:45:00.640Z,3.70
2023-04-16T06:48:05.046Z,3.78
2023-04-16T06:51:07.999Z,3.58
2023-04-16T06:54:10.880Z,3.90
2023-04-16T06:57:13.726Z,3.67
2023-04-16T07:00:18.412Z,3.60
2023-04-16T07:03:21.436Z,3.42
2023-04-16T07:06:24.613Z,3.50
2023-04-16T07:09:27.685Z,3.47
2023-04-16T07:12:31.453Z,3.25
2023-04-16T07:15:35.730Z,3.60
2023-04-16T07:18:38.823Z,3.70
2023-04-16T07:21:43.634Z,4.00
2023-04-16T07:24:46.574Z,3.50
2023-04-16T07:27:49.438Z,3.50
2023-04-16T07:30:53.743Z,3.70
2023-04-16T07:33:56.714Z,3.40
2023-04-16T07:36:59.627Z,3.50
2023-04-16T07:40:02.535Z,3.72
2023-04-16T07:43:05.615Z,3.50
2023-04-16T07:46:09.883Z,3.50
2023-04-16T07:49:12.800Z,3.72
2023-04-16T07:52:15.707Z,3.42
2023-04-16T07:55:18.565Z,3.70
2023-04-16T07:58:21.469Z,3.67
2023-04-16T08:01:25.858Z,3.95
2023-04-16T08:04:28.982Z,3.30
2023-04-16T08:07:33.953Z,3.60
2023-04-16T08:10:37.430Z,3.50
2023-04-16T08:13:40.423Z,3.10
2023-04-16T08:16:44.665Z,3.35
2023-04-16T08:19:47.643Z,3.60
2023-04-16T08:22:50.683Z,3.30
2023-04-16T08:25:53.573Z,3.60
2023-04-16T08:28:56.437Z,3.67
2023-04-16T08:32:00.842Z,3.60
2023-04-16T08:35:03.818Z,3.65
2023-04-16T08:38:07.488Z,3.50
2023-04-16T08:41:13.676Z,3.45
2023-04-16T08:44:21.952Z,3.35
2023-04-16T08:47:30.152Z,3.55
2023-04-16T08:50:34.790Z,3.80
2023-04-16T08:53:44.738Z,5.13
2023-04-16T08:56:49.095Z,4.25
2023-04-16T08:59:55.380Z,4.05
2023-04-16T09:03:00.361Z,4.30
2023-04-16T09:06:05.333Z,4.35
2023-04-16T09:09:10.442Z,4.30
2023-04-16T09:12:13.650Z,5.15
2023-04-16T09:15:16.593Z,5.60
2023-04-16T09:18:21.524Z,5.97
2023-04-16T09:21:26.128Z,5.97
2023-04-16T09:24:30.063Z,5.43
2023-04-16T09:27:32.994Z,4.93
2023-04-16T09:30:37.171Z,4.80
2023-04-16T09:33:41.585Z,4.70
2023-04-16T09:36:44.492Z,4.40
2023-04-16T09:39:55.072Z,4.68
2023-04-16T09:43:00.499Z,4.43
2023-04-16T09:46:08.092Z,4.28
2023-04-16T09:49:15.972Z,3.63
2023-04-16T09:52:20.606Z,3.97
2023-04-16T09:55:28.787Z,4.00
2023-04-16T09:58:31.943Z,4.22
2023-04-16T10:01:35.082Z,4.10
2023-04-16T10:04:50.601Z,4.00
2023-04-16T10:07:53.654Z,3.88
2023-04-16T10:10:57.685Z,4.10
2023-04-16T10:14:01.777Z,3.53
2023-04-16T10:17:06.211Z,3.85
2023-04-16T10:20:11.487Z,4.20
2023-04-16T10:23:14.910Z,4.07
2023-04-16T10:26:19.657Z,4.00
2023-04-16T10:29:23.694Z,4.45
2023-04-16T10:32:28.642Z,3.63
2023-04-16T10:35:33.073Z,3.67
2023-04-16T10:38:36.338Z,4.07
2023-04-16T10:41:40.245Z,3.80
2023-04-16T10:44:45.512Z,3.83
2023-04-16T10:47:48.670Z,4.18
2023-04-16T10:50:58.177Z,3.63
2023-04-16T10:54:06.085Z,4.05
2023-04-16T10:57:12.287Z,3.90
2023-04-16T11:00:24.150Z,3.90
2023-04-16T11:03:27.566Z,3.60
2023-04-16T11:06:32.382Z,3.90
2023-04-16T11:09:52.756Z,3.75
2023-04-16T11:12:57.019Z,3.58
2023-04-16T11:16:00.155Z,3.80
2023-04-16T11:19:03.162Z,3.83
2023-04-16T11:22:07.667Z,3.90
2023-04-16T11:25:10.954Z,4.15
2023-04-16T11:28:13.877Z,3.30
2023-04-16T11:31:16.813Z,3.63
2023-04-16T11:34:20.339Z,3.67
2023-04-16T11:37:33.990Z,3.72
2023-04-16T11:40:37.072Z,3.58
2023-04-16T11:43:40.077Z,3.42
2023-04-16T11:46:42.991Z,3.50
2023-04-16T11:49:45.934Z,3.70
2023-04-16T11:52:51.485Z,3.60
2023-04-16T11:55:54.473Z,3.70
2023-04-16T11:59:11.233Z,3.95
2023-04-16T12:02:14.398Z,3.80
2023-04-16T12:05:32.450Z,3.78
2023-04-16T12:08:36.756Z,4.28
2023-04-16T12:11:40.309Z,3.92
2023-04-16T12:14:51.288Z,3.50
2023-04-16T12:19:04.062Z,3.85
2023-04-16T12:22:07.001Z,3.58
2023-04-16T12:25:13.719Z,4.00
2023-04-16T12:28:27.325Z,3.75
2023-04-16T12:31:38.352Z,3.33
2023-04-16T12:34:52.441Z,3.70
2023-04-16T12:37:55.348Z,3.25
2023-04-16T12:41:02.261Z,3.97
2023-04-16T12:44:08.946Z,3.30
2023-04-16T12:47:12.325Z,3.60
2023-04-16T12:50:15.383Z,3.47
2023-04-16T12:53:18.677Z,3.50
2023-04-16T12:56:22.978Z,3.50
2023-04-16T12:59:25.935Z,3.03
2023-04-16T13:02:29.015Z,3.25
2023-04-16T13:05:31.956Z,3.70
2023-04-16T13:08:35.042Z,3.60
2023-04-16T13:11:39.322Z,3.72
2023-04-16T13:14:44.941Z,3.10
2023-04-16T13:17:48.062Z,3.20
2023-04-16T13:20:50.937Z,3.22
2023-04-16T13:23:54.080Z,3.10
2023-04-16T13:26:58.414Z,5.00
2023-04-16T13:30:01.336Z,3.00
2023-04-16T13:33:04.388Z,3.22
2023-04-16T13:36:07.945Z,3.30
2023-04-16T13:39:11.767Z,3.10
2023-04-16T13:42:16.849Z,3.38
2023-04-16T13:45:20.345Z,3.28
2023-04-16T13:48:23.482Z,2.67
2023-04-16T13:51:27.044Z,3.38
2023-04-16T13:54:29.963Z,3.10
2023-04-16T13:57:34.517Z,3.15
2023-04-16T14:00:38.293Z,3.13
2023-04-16T14:03:42.070Z,3.53
2023-04-16T14:06:45.258Z,3.65
2023-04-16T14:09:48.191Z,3.33
2023-04-16T14:12:52.745Z,3.20
2023-04-16T14:15:55.765Z,3.30
2023-04-16T14:18:58.631Z,3.40
2023-04-16T14:22:01.527Z,3.50
2023-04-16T14:25:05.121Z,2.90
2023-04-16T14:28:09.876Z,3.15
2023-04-16T14:31:12.760Z,2.88
2023-04-16T14:34:15.601Z,2.88
2023-04-16T14:37:19.161Z,2.88
2023-04-16T14:40:22.156Z,2.90
2023-04-16T14:43:27.145Z,2.78
2023-04-16T14:46:30.560Z,3.22
2023-04-16T14:49:33.536Z,2.80
2023-04-16T14:52:36.482Z,3.30
2023-04-16T14:55:39.441Z,3.65
2023-04-16T14:58:43.769Z,3.17
2023-04-16T15:01:47.255Z,3.30
2023-04-16T15:04:50.478Z,3.13
2023-04-16T15:07:53.743Z,2.63
2023-04-16T15:10:56.599Z,3.05
2023-04-16T15:14:01.135Z,3.08
2023-04-16T15:17:04.285Z,2.90
2023-04-16T15:20:09.455Z,4.28
2023-04-16T15:23:12.381Z,2.80
2023-04-16T15:26:15.380Z,3.22
2023-04-16T15:29:19.683Z,3.47
2023-04-16T15:32:22.572Z,3.63
2023-04-16T15:35:25.603Z,3.42
2023-04-16T15:38:29.789Z,3.38
2023-04-16T15:41:36.268Z,3.17
2023-04-16T15:44:41.480Z,3.75
2023-04-16T15:47:47.907Z,3.00
2023-04-16T15:50:51.243Z,3.55
2023-04-16T15:53:54.152Z,3.40
2023-04-16T15:56:58.684Z,3.55
2023-04-16T16:03:14.511Z,3.50
2023-04-16T16:06:17.952Z,3.15
2023-04-16T16:09:25.818Z,3.63
2023-04-16T16:12:29.330Z,3.42
2023-04-16T16:15:33.687Z,3.13
2023-04-16T16:18:36.950Z,3.75
2023-04-16T16:21:39.890Z,3.30
2023-04-16T16:24:43.102Z,4.05
2023-04-16T16:27:46.027Z,3.40
2023-04-16T16:30:50.904Z,2.92
2023-04-16T16:33:53.865Z,3.38
2023-04-16T16:36:56.760Z,3.97
2023-04-16T16:39:59.632Z,3.40
2023-04-16T16:43:02.672Z,3.03
2023-04-16T16:46:07.570Z,3.20
2023-04-16T16:49:11.014Z,2.92
2023-04-16T16:52:14.300Z,3.40
2023-04-16T16:55:18.799Z,3.95
2023-04-16T16:58:21.850Z,4.22
2023-04-16T17:01:26.365Z,2.92
2023-04-16T17:04:29.441Z,3.13
2023-04-16T17:07:32.723Z,2.83
2023-04-16T17:10:36.434Z,3.15
2023-04-16T17:13:39.345Z,3.00
2023-04-16T17:16:46.403Z,3.22
2023-04-16T17:19:49.438Z,3.10
2023-04-16T17:22:52.346Z,3.25
2023-04-16T17:25:55.257Z,4.13
2023-04-16T17:28:59.322Z,5.22
2023-04-16T17:32:03.696Z,3.80
2023-04-16T17:35:08.821Z,3.50
2023-04-16T17:38:11.753Z,4.25
2023-04-16T17:41:14.677Z,4.38
2023-04-16T17:44:17.495Z,4.55
2023-04-16T17:47:21.700Z,4.30
2023-04-16T17:50:24.759Z,6.72
2023-04-16T17:53:27.718Z,8.95
2023-04-16T17:56:30.932Z,8.55
2023-04-16T17:59:34.565Z,8.65
2023-04-16T18:02:40.599Z,8.82
2023-04-16T18:05:43.683Z,9.77
2023-04-16T18:08:46.521Z,10.30
2023-04-16T18:11:49.521Z,10.70
2023-04-16T18:14:52.419Z,10.52
2023-04-16T18:17:56.739Z,9.45
2023-04-16T18:20:59.731Z,11.10
2023-04-16T18:24:03.524Z,10.98
2023-04-16T18:27:07.226Z,10.20
2023-04-16T18:30:20.160Z,10.10
2023-04-16T18:33:52.540Z,9.73
2023-04-16T18:36:52.745Z,9.55
2023-04-16T18:39:58.039Z,9.18
2023-04-16T18:43:01.169Z,9.20
2023-04-16T18:46:04.118Z,9.20
2023-04-16T18:49:08.908Z,10.13
2023-04-16T18:52:11.876Z,9.63
2023-04-16T18:55:14.771Z,9.75
2023-04-16T18:58:17.617Z,9.73
2023-04-16T19:01:20.615Z,9.70
2023-04-16T19:04:25.344Z,9.02
2023-04-16T19:07:28.251Z,9.98
2023-04-16T19:10:31.204Z,9.68
2023-04-16T19:13:34.351Z,9.65
2023-04-16T19:16:37.347Z,9.27
2023-04-16T19:19:41.595Z,9.57
2023-04-16T19:22:44.548Z,9.25
2023-04-16T19:25:49.670Z,9.27
2023-04-16T19:28:54.634Z,10.35
2023-04-16T19:31:57.624Z,10.52
2023-04-16T19:35:01.919Z,10.57
2023-04-16T19:38:04.794Z,10.75
2023-04-16T19:41:07.680Z,10.75
2023-04-16T19:44:10.961Z,10.40
2023-04-16T19:47:13.998Z,10.40
2023-04-16T19:50:18.497Z,11.23
2023-04-16T19:53:21.538Z,10.98
2023-04-16T19:56:24.542Z,10.02
2023-04-16T19:59:28.579Z,10.73
2023-04-16T20:02:31.538Z,12.52
2023-04-16T20:05:36.047Z,12.27
2023-04-16T20:08:39.207Z,13.27
2023-04-16T20:11:42.076Z,11.70
2023-04-16T20:14:44.955Z,11.63
2023-04-16T20:17:47.957Z,11.07
2023-04-16T20:20:52.269Z,11.18
2023-04-16T20:23:55.149Z,11.57
2023-04-16T20:26:58.338Z,11.57
2023-04-16T20:30:01.779Z,11.45
2023-04-16T20:33:04.751Z,11.40
2023-04-16T20:36:09.554Z,11.90
2023-04-16T20:39:12.637Z,13.32
2023-04-16T20:42:15.750Z,13.00
2023-04-16T20:45:18.893Z,12.27
2023-04-16T20:48:21.768Z,12.60
2023-04-16T20:51:27.624Z,13.80
2023-04-16T20:54:30.795Z,12.15
2023-04-16T20:57:33.826Z,12.70
2023-04-16T21:00:36.741Z,12.43
2023-04-16T21:03:39.831Z,11.98
2023-04-16T21:06:44.163Z,12.05
2023-04-16T21:09:47.086Z,12.23
2023-04-16T21:12:50.004Z,12.50
2023-04-16T21:15:53.337Z,12.55
2023-04-16T21:18:56.424Z,11.48
2023-04-16T21:22:02.457Z,11.77
2023-04-16T21:25:06.053Z,12.27
2023-04-16T21:28:09.020Z,12.25
2023-04-16T21:31:11.993Z,11.52
2023-04-16T21:34:14.991Z,11.30
2023-04-16T21:37:19.218Z,11.45
2023-04-16T21:40:22.238Z,11.80
2023-04-16T21:43:25.305Z,11.85
2023-04-16T21:46:28.464Z,12.23
2023-04-16T21:49:31.459Z,11.40
2023-04-16T21:52:40.132Z,14.07
2023-04-16T21:55:43.015Z,12.35
2023-04-16T21:58:45.980Z,12.77
2023-04-16T22:01:49.025Z,12.23
2023-04-16T22:04:51.917Z,11.13
2023-04-16T22:07:56.354Z,11.10
2023-04-16T22:11:00.128Z,12.60
2023-04-16T22:14:03.140Z,11.27
2023-04-16T22:17:06.429Z,9.73
2023-04-16T22:20:12.642Z,9.25
2023-04-16T22:23:16.920Z,8.05
2023-04-16T22:26:19.778Z,7.95
2023-04-16T22:29:22.738Z,7.90
2023-04-16T22:32:25.862Z,7.80
2023-04-16T22:35:28.789Z,7.68
2023-04-16T22:38:33.034Z,6.60
2023-04-16T22:41:36.566Z,6.50
2023-04-16T22:44:39.480Z,6.82
2023-04-16T22:47:43.240Z,7.07
2023-04-16T22:50:48.557Z,6.78
2023-04-16T22:53:53.079Z,6.22
2023-04-16T22:56:56.642Z,6.55
2023-04-16T22:59:59.537Z,6.22
2023-04-16T23:03:02.678Z,6.55
2023-04-16T23:06:06.467Z,7.47
2023-04-16T23:09:11.539Z,6.20
2023-04-16T23:12:14.593Z,6.05
2023-04-16T23:15:17.557Z,6.88
2023-04-16T23:18:20.505Z,5.82
2023-04-16T23:21:23.423Z,6.00
2023-04-16T23:24:27.701Z,6.18
2023-04-16T23:27:32.476Z,5.95
2023-04-16T23:30:35.344Z,5.95
2023-04-16T23:33:38.175Z,5.80
2023-04-16T23:36:41.146Z,5.72
2023-04-16T23:39:45.546Z,5.72
2023-04-16T23:42:48.471Z,5.53
2023-04-16T23:45:51.400Z,6.45
2023-04-16T23:48:55.216Z,5.80
2023-04-16T23:51:58.126Z,5.57
2023-04-16T23:55:02.469Z,5.47
2023-04-16T23:58:05.361Z,5.90
